Time;durP1;ratioP1;P1;durP2;ratioP2;P2;SDS_P1;SDS_P2;PMS_P1;PMS_P2;Temp;Humidity;BMP_temperature;BMP_pressure;BME280_temperature;BME280_humidity;BME280_pressure;Samples;Min_cycle;Max_cycle;Signal;HPM_P1;HPM_P2
2024/03/23 00:01:08;;;;;;;37.40;33.40;;;;;;;10.57;72.23;99753.39;111402;1252;22165;-69
2024/03/23 00:03:37;;;;;;;38.30;34.30;;;;;;;10.55;72.19;99754.08;111402;1252;21983;-69
2024/03/23 00:06:06;;;;;;;39.90;33.80;;;;;;;10.54;72.28;99751.48;111361;1252;21952;-70
2024/03/23 00:08:35;;;;;;;37.10;33.30;;;;;;;10.51;72.31;99748.20;111389;1252;22392;-70
2024/03/23 00:11:04;;;;;;;35.10;31.30;;;;;;;10.51;72.45;99749.66;111369;1252;22755;-70
2024/03/23 00:13:33;;;;;;;35.30;31.70;;;;;;;10.49;72.46;99741.86;111350;1252;21952;-69
2024/03/23 00:16:02;;;;;;;35.10;31.40;;;;;;;10.47;72.30;99741.83;111334;1252;21955;-70
2024/03/23 00:18:31;;;;;;;36.60;32.80;;;;;;;10.46;72.40;99741.87;111379;1252;21952;-70
2024/03/23 00:21:00;;;;;;;35.60;30.80;;;;;;;10.48;72.30;99737.55;111317;1252;21968;-68
2024/03/23 00:23:29;;;;;;;34.10;30.60;;;;;;;10.50;72.37;99736.86;111093;1253;21945;-69
2024/03/23 00:25:59;;;;;;;34.10;30.50;;;;;;;10.52;72.43;99732.84;111106;1253;21959;-70
2024/03/23 00:28:27;;;;;;;32.60;29.10;;;;;;;10.52;72.42;99732.10;111065;1253;21955;-70
2024/03/23 00:30:57;;;;;;;28.80;25.80;;;;;;;10.51;72.33;99722.54;111052;1253;21944;-69
2024/03/23 00:33:25;;;;;;;30.50;27.20;;;;;;;10.47;72.44;99721.80;111077;1253;23682;-71
2024/03/23 00:35:54;;;;;;;29.50;25.50;;;;;;;10.41;72.61;99720.85;111120;1253;21945;-70
2024/03/23 00:38:24;;;;;;;25.80;23.20;;;;;;;10.33;72.77;99713.55;111059;1253;22147;-71
2024/03/23 00:40:53;;;;;;;29.20;25.20;;;;;;;10.27;72.97;99708.58;111267;1253;21955;-70
2024/03/23 00:43:23;;;;;;;28.10;24.60;;;;;;;10.24;73.18;99703.38;111044;1253;21991;-73
2024/03/23 00:45:52;;;;;;;26.10;23.30;;;;;;;10.18;73.18;99701.53;111045;1253;22937;-72
2024/03/23 00:48:21;;;;;;;24.80;22.30;;;;;;;10.13;73.25;99701.55;111064;1253;21955;-70
2024/03/23 00:50:50;;;;;;;27.80;23.70;;;;;;;10.11;73.39;99700.13;111103;1253;21938;-72
2024/03/23 00:53:19;;;;;;;26.10;22.70;;;;;;;10.11;73.41;99697.19;111064;1253;24148;-70
2024/03/23 00:55:48;;;;;;;29.00;24.70;;;;;;;10.11;73.50;99692.25;111041;1253;21992;-70
2024/03/23 00:58:17;;;;;;;29.90;26.60;;;;;;;10.12;73.39;99689.00;111120;1253;21970;-71
2024/03/23 01:00:46;;;;;;;31.40;28.40;;;;;;;10.08;73.27;99683.31;111979;1253;22105;-69
2024/03/23 01:03:15;;;;;;;32.80;29.60;;;;;;;10.07;73.38;99681.80;111704;1253;21958;-70
2024/03/23 01:05:44;;;;;;;35.40;31.90;;;;;;;10.06;73.70;99678.89;111533;1253;21969;-74
2024/03/23 01:08:13;;;;;;;37.60;33.80;;;;;;;10.08;73.62;99677.19;111295;1253;21950;-72
2024/03/23 01:10:42;;;;;;;36.20;32.70;;;;;;;10.10;73.56;99676.17;111280;1253;21960;-72
2024/03/23 01:13:11;;;;;;;36.80;33.10;;;;;;;10.12;73.70;99674.25;112111;1253;21992;-70
2024/03/23 01:15:41;;;;;;;35.80;32.40;;;;;;;10.14;73.37;99666.12;111729;1253;21945;-70
2024/03/23 01:18:10;;;;;;;37.40;33.40;;;;;;;10.14;73.42;99662.81;111649;1253;21963;-70
2024/03/23 01:20:39;;;;;;;32.30;28.80;;;;;;;10.14;73.44;99663.14;111499;1253;21962;-70
2024/03/23 01:23:09;;;;;;;33.00;26.20;;;;;;;10.12;73.67;99656.06;112372;1253;21923;-69
2024/03/23 01:25:41;;;;;;;32.30;27.50;;;;;;;10.14;73.61;99652.77;112827;1253;22007;-69
2024/03/23 01:28:10;;;;;;;30.20;26.60;;;;;;;10.16;73.70;99647.84;112532;1253;21945;-70
2024/03/23 01:30:39;;;;;;;32.00;28.50;;;;;;;10.19;73.85;99647.06;112286;1253;21962;-69
2024/03/23 01:33:09;;;;;;;33.20;29.80;;;;;;;10.24;73.77;99647.91;112642;1253;22114;-70
2024/03/23 01:35:39;;;;;;;34.00;30.40;;;;;;;10.27;73.55;99648.55;112369;1253;21928;-70
2024/03/23 01:38:08;;;;;;;31.90;28.50;;;;;;;10.30;73.95;99640.75;111270;1253;22168;-70
2024/03/23 01:40:37;;;;;;;33.30;29.90;;;;;;;10.34;73.79;99634.50;111118;1253;22033;-70
2024/03/23 01:43:08;;;;;;;32.70;28.90;;;;;;;10.36;73.59;99626.91;111159;1253;21966;-70
2024/03/23 01:45:37;;;;;;;31.60;27.80;;;;;;;10.38;73.30;99629.77;111007;1253;23550;-70
2024/03/23 01:48:07;;;;;;;32.00;28.60;;;;;;;10.37;73.36;99627.75;111097;1253;21957;-70
2024/03/23 01:50:36;;;;;;;27.80;24.90;;;;;;;10.36;73.42;99627.11;111008;1253;21927;-70
2024/03/23 01:53:06;;;;;;;30.50;27.20;;;;;;;10.37;73.59;99630.34;111064;1253;21957;-71
2024/03/23 01:55:35;;;;;;;28.60;25.60;;;;;;;10.38;73.44;99629.23;111077;1252;22819;-70
2024/03/23 01:58:06;;;;;;;27.80;24.50;;;;;;;10.38;73.45;99626.89;111025;1253;22325;-70
2024/03/23 02:00:37;;;;;;;27.60;24.30;;;;;;;10.37;73.31;99621.52;111057;1253;21963;-72
2024/03/23 02:03:28;;;;;;;27.30;24.50;;;;;;;10.34;73.53;99617.55;111105;1247;23014;-72
2024/03/23 02:05:57;;;;;;;27.50;24.40;;;;;;;10.33;73.66;99607.31;111080;1253;21953;-69
2024/03/23 02:08:25;;;;;;;29.30;25.00;;;;;;;10.36;73.98;99601.42;110989;1253;21944;-70
2024/03/23 02:10:54;;;;;;;27.70;24.70;;;;;;;10.40;73.87;99604.41;110974;1253;21951;-70
2024/03/23 02:13:23;;;;;;;26.70;23.80;;;;;;;10.43;73.62;99600.49;111033;1253;21952;-70
2024/03/23 02:15:52;;;;;;;26.30;23.20;;;;;;;10.44;73.80;99596.19;111120;1253;24142;-70
2024/03/23 02:18:21;;;;;;;29.70;24.90;;;;;;;10.43;73.72;99593.60;111074;1253;22355;-69
2024/03/23 02:20:50;;;;;;;26.40;23.60;;;;;;;10.43;73.61;99589.16;111099;1253;21970;-70
2024/03/23 02:23:19;;;;;;;27.80;24.80;;;;;;;10.41;73.68;99587.94;111110;1247;21966;-72
2024/03/23 02:25:48;;;;;;;28.50;23.90;;;;;;;10.36;73.49;99584.29;110480;1260;23213;-71
2024/03/23 02:28:17;;;;;;;27.10;24.40;;;;;;;10.33;73.96;99582.29;110401;1260;21969;-71
2024/03/23 02:30:46;;;;;;;27.80;23.60;;;;;;;10.33;74.02;99577.89;110727;1260;23546;-71
2024/03/23 02:33:16;;;;;;;28.10;25.10;;;;;;;10.36;73.97;99571.98;110465;1260;21978;-70
2024/03/23 02:35:46;;;;;;;29.90;25.00;;;;;;;10.42;74.15;99565.19;110429;1251;23216;-70
2024/03/23 02:38:14;;;;;;;26.90;24.10;;;;;;;10.46;73.79;99558.14;110468;1260;21967;-71
2024/03/23 02:40:43;;;;;;;27.60;24.70;;;;;;;10.48;73.86;99551.48;110533;1260;21966;-71
2024/03/23 02:43:12;;;;;;;26.70;23.10;;;;;;;10.49;73.94;99547.04;110440;1260;21979;-70
2024/03/23 02:45:41;;;;;;;29.80;24.70;;;;;;;10.48;73.72;99549.17;110376;1260;23843;-70
2024/03/23 02:48:10;;;;;;;33.40;29.20;;;;;;;10.48;73.90;99552.19;110420;1260;21994;-70
2024/03/23 02:50:39;;;;;;;34.90;29.30;;;;;;;10.48;73.67;99548.70;110638;1253;21952;-70
2024/03/23 02:53:08;;;;;;;34.50;27.80;;;;;;;10.46;73.96;99539.48;111020;1253;21953;-70
2024/03/23 02:55:37;;;;;;;30.60;26.00;;;;;;;10.47;73.88;99539.39;111018;1253;21960;-70
2024/03/23 02:58:06;;;;;;;29.20;25.90;;;;;;;10.49;74.07;99534.35;111024;1253;21981;-69
2024/03/23 03:00:35;;;;;;;28.30;25.30;;;;;;;10.49;73.90;99532.55;111172;1253;23589;-69
2024/03/23 03:03:04;;;;;;;30.70;25.50;;;;;;;10.50;73.95;99531.64;111035;1253;21942;-70
2024/03/23 03:05:33;;;;;;;28.60;24.50;;;;;;;10.50;73.59;99531.06;111121;1253;21959;-70
2024/03/23 03:08:02;;;;;;;27.80;24.90;;;;;;;10.48;73.60;99526.88;110981;1253;24983;-71
2024/03/23 03:10:34;;;;;;;27.90;25.00;;;;;;;10.49;73.83;99520.13;110987;1253;22544;-71
2024/03/23 03:13:04;;;;;;;28.20;24.70;;;;;;;10.51;73.73;99516.23;111094;1253;22174;-71
2024/03/23 03:15:32;;;;;;;32.40;28.60;;;;;;;10.53;73.74;99512.73;110981;1253;21960;-70
2024/03/23 03:18:01;;;;;;;36.40;30.50;;;;;;;10.52;73.67;99512.30;110983;1253;21958;-70
2024/03/23 03:20:31;;;;;;;29.00;25.80;;;;;;;10.49;73.60;99505.50;111031;1253;21961;-70
2024/03/23 03:23:00;;;;;;;28.10;24.50;;;;;;;10.48;73.63;99495.17;111115;1242;21958;-72
2024/03/23 03:25:29;;;;;;;27.50;24.50;;;;;;;10.47;73.67;99490.66;111021;1253;21955;-70
2024/03/23 03:27:59;;;;;;;26.30;23.60;;;;;;;10.46;73.69;99489.70;111070;1253;21957;-70
2024/03/23 03:30:27;;;;;;;27.10;24.30;;;;;;;10.44;73.62;99489.16;111019;1247;22746;-70
2024/03/23 03:32:56;;;;;;;27.60;24.80;;;;;;;10.43;73.35;99487.46;110960;1253;21957;-70
2024/03/23 03:35:25;;;;;;;27.80;24.90;;;;;;;10.42;73.58;99489.17;111008;1253;21955;-69
2024/03/23 03:37:54;;;;;;;32.00;27.10;;;;;;;10.40;73.74;99481.71;110995;1253;25033;-69
2024/03/23 03:40:24;;;;;;;27.60;24.80;;;;;;;10.36;73.53;99484.73;111423;1253;21960;-70
2024/03/23 03:42:53;;;;;;;30.60;27.30;;;;;;;10.35;73.70;99487.10;112565;1253;21961;-70
2024/03/23 03:45:22;;;;;;;29.50;25.70;;;;;;;10.36;73.66;99485.61;111903;1253;21950;-69
2024/03/23 03:47:51;;;;;;;29.50;26.30;;;;;;;10.39;73.54;99480.95;111120;1253;21967;-70
2024/03/23 03:50:22;;;;;;;27.40;24.50;;;;;;;10.36;73.61;99486.30;110989;1253;22037;-70
2024/03/23 03:52:50;;;;;;;30.00;26.90;;;;;;;10.35;73.58;99483.62;111083;1253;21963;-71
2024/03/23 03:55:19;;;;;;;30.10;26.80;;;;;;;10.32;73.53;99476.64;111024;1253;21952;-71
2024/03/23 03:57:48;;;;;;;31.10;26.50;;;;;;;10.27;73.77;99475.98;111114;1253;21954;-69
2024/03/23 04:00:18;;;;;;;32.00;28.00;;;;;;;10.25;73.85;99480.21;111057;1253;21948;-70
2024/03/23 04:02:47;;;;;;;32.00;28.60;;;;;;;10.26;73.80;99480.45;110843;1253;21965;-70
2024/03/23 04:05:16;;;;;;;31.80;28.30;;;;;;;10.29;73.76;99476.14;111018;1253;22064;-69
2024/03/23 04:07:45;;;;;;;34.90;30.60;;;;;;;10.29;73.66;99475.81;111064;1253;21973;-71
2024/03/23 04:10:15;;;;;;;40.10;36.00;;;;;;;10.28;73.70;99471.69;110977;1253;21997;-72
2024/03/23 04:12:44;;;;;;;38.20;32.40;;;;;;;10.29;73.66;99465.12;111064;1247;22006;-69
2024/03/23 04:15:14;;;;;;;48.60;42.70;;;;;;;10.28;73.41;99461.14;111036;1253;22968;-69
2024/03/23 04:17:43;;;;;;;42.00;34.60;;;;;;;10.29;73.66;99457.54;111167;1253;21962;-70
2024/03/23 04:20:14;;;;;;;35.00;30.30;;;;;;;10.31;73.75;99450.84;111031;1242;21960;-71
2024/03/23 04:22:43;;;;;;;34.20;29.50;;;;;;;10.31;73.54;99447.11;111048;1252;23703;-70
2024/03/23 04:25:14;;;;;;;36.60;29.50;;;;;;;10.31;73.37;99442.54;111006;1251;21961;-70
2024/03/23 04:27:43;;;;;;;34.80;31.10;;;;;;;10.31;73.58;99432.70;111127;1253;21955;-71
2024/03/23 04:30:13;;;;;;;47.90;39.50;;;;;;;10.30;73.54;99438.79;110995;1253;23580;-70
2024/03/23 04:32:41;;;;;;;55.80;44.90;;;;;;;10.30;73.65;99443.85;111145;1253;21955;-70
2024/03/23 04:35:11;;;;;;;72.50;53.60;;;;;;;10.29;73.40;99439.55;110946;1253;22202;-71
2024/03/23 04:37:42;;;;;;;118.40;75.70;;;;;;;10.21;73.58;99433.85;111006;1253;22047;-70
2024/03/23 04:40:11;;;;;;;;;;;;;;;10.11;73.57;99434.39;110955;1253;22155;-71
2024/03/23 04:42:40;;;;;;;46.70;35.60;;;;;;;9.92;74.16;99437.49;111017;1253;22014;-70
2024/03/23 04:45:10;;;;;;;41.30;35.00;;;;;;;9.90;74.44;99434.29;111086;1253;21953;-70
2024/03/23 04:47:39;;;;;;;38.00;33.80;;;;;;;9.93;74.27;99433.02;111076;1253;21954;-70
2024/03/23 04:50:10;;;;;;;38.70;33.50;;;;;;;9.95;74.45;99431.77;111256;1253;24111;-70
2024/03/23 04:52:39;;;;;;;38.10;34.40;;;;;;;9.97;74.36;99426.18;111055;1253;21962;-72
2024/03/23 04:55:09;;;;;;;41.30;37.00;;;;;;;9.98;74.47;99422.19;111048;1253;22047;-70
2024/03/23 04:57:38;;;;;;;40.30;36.00;;;;;;;10.02;74.65;99421.23;111116;1253;21962;-69
2024/03/23 05:00:16;;;;;;;43.40;39.00;;;;;;;10.06;74.66;99419.11;111005;1253;22001;-69
2024/03/23 05:02:45;;;;;;;50.30;45.40;;;;;;;10.09;74.60;99416.08;111047;1253;24397;-70
2024/03/23 05:05:14;;;;;;;56.10;50.70;;;;;;;10.10;74.31;99410.92;111048;1253;21959;-70
2024/03/23 05:07:43;;;;;;;53.60;48.20;;;;;;;10.11;74.12;99403.77;111070;1253;21957;-71
2024/03/23 05:10:13;;;;;;;45.50;40.90;;;;;;;10.08;74.28;99397.82;111053;1253;21972;-71
2024/03/23 05:12:42;;;;;;;44.30;40.00;;;;;;;10.04;74.30;99397.84;111023;1253;22740;-69
2024/03/23 05:15:12;;;;;;;40.80;36.50;;;;;;;9.98;74.35;99396.92;111100;1253;22943;-70
2024/03/23 05:17:41;;;;;;;37.20;33.10;;;;;;;9.93;74.29;99390.42;111039;1253;23682;-69
2024/03/23 05:20:12;;;;;;;34.80;30.90;;;;;;;9.90;74.33;99388.41;110954;1253;21951;-71
2024/03/23 05:22:41;;;;;;;34.10;30.40;;;;;;;9.84;74.55;99383.27;110994;1253;21998;-70
2024/03/23 05:25:11;;;;;;;34.00;30.20;;;;;;;9.80;74.86;99383.13;111302;1253;21958;-70
2024/03/23 05:27:40;;;;;;;37.20;32.50;;;;;;;9.78;75.17;99380.84;111346;1253;21996;-71
2024/03/23 05:30:10;;;;;;;31.50;28.20;;;;;;;9.82;74.90;99380.33;111071;1253;21942;-69
2024/03/23 05:32:40;;;;;;;36.30;32.40;;;;;;;9.86;74.86;99370.64;111024;1253;22697;-69
2024/03/23 05:35:09;;;;;;;38.60;31.30;;;;;;;9.92;74.95;99370.16;111050;1253;22660;-69
2024/03/23 05:37:38;;;;;;;39.20;34.70;;;;;;;9.96;74.66;99365.90;111065;1253;23772;-70
2024/03/23 05:40:09;;;;;;;41.70;36.10;;;;;;;10.03;74.70;99362.77;110941;1253;21955;-70
2024/03/23 05:42:38;;;;;;;39.70;35.20;;;;;;;10.08;74.61;99362.89;110982;1253;22049;-70
2024/03/23 05:45:08;;;;;;;36.60;32.80;;;;;;;10.12;74.50;99360.24;111068;1253;21964;-70
2024/03/23 05:47:37;;;;;;;35.40;29.30;;;;;;;10.11;74.19;99353.66;111092;1253;23102;-69
2024/03/23 05:50:06;;;;;;;33.70;29.90;;;;;;;10.10;74.10;99349.84;110952;1244;21975;-69
2024/03/23 05:52:35;;;;;;;33.50;28.10;;;;;;;10.09;74.05;99345.15;111111;1253;22946;-70
2024/03/23 05:55:06;;;;;;;42.20;32.50;;;;;;;10.09;74.15;99341.67;111047;1253;21941;-69
2024/03/23 05:57:34;;;;;;;29.80;26.30;;;;;;;10.09;74.04;99342.17;111133;1253;23748;-69
2024/03/23 06:00:06;;;;;;;34.30;28.10;;;;;;;10.12;73.94;99344.40;111079;1253;21961;-69
2024/03/23 06:02:39;;;;;;;30.40;27.30;;;;;;;10.19;74.14;99346.84;111042;1253;22049;-69
2024/03/23 06:05:08;;;;;;;32.90;28.10;;;;;;;10.27;73.99;99350.00;111096;1253;21987;-70
2024/03/23 06:07:37;;;;;;;31.10;26.70;;;;;;;10.36;73.59;99342.04;111074;1253;23579;-70
2024/03/23 06:10:07;;;;;;;36.00;30.00;;;;;;;10.42;73.55;99342.23;111015;1253;24063;-69
2024/03/23 06:12:36;;;;;;;39.10;33.80;;;;;;;10.45;73.38;99337.36;111106;1253;21995;-70
2024/03/23 06:15:10;;;;;;;48.60;43.60;;;;;;;10.48;73.30;99334.64;111357;1253;21959;-70
2024/03/23 06:17:43;;;;;;;61.20;55.20;;;;;;;10.52;73.18;99335.42;111065;1253;21983;-69
2024/03/23 06:20:12;;;;;;;60.50;54.70;;;;;;;10.55;72.90;99335.71;111046;1253;21950;-69
2024/03/23 06:22:42;;;;;;;61.40;55.40;;;;;;;10.54;72.73;99330.84;111087;1253;22730;-69
2024/03/23 06:25:12;;;;;;;48.90;44.20;;;;;;;10.54;72.40;99327.70;111092;1253;21951;-69
2024/03/23 06:27:41;;;;;;;46.10;41.50;;;;;;;10.52;72.51;99329.96;111674;1253;22045;-69
2024/03/23 06:30:12;;;;;;;47.10;42.20;;;;;;;10.54;72.62;99329.94;111796;1253;22335;-70
2024/03/23 06:32:41;;;;;;;49.20;44.30;;;;;;;10.63;72.55;99327.94;111094;1253;22143;-69
2024/03/23 06:35:09;;;;;;;48.80;43.10;;;;;;;10.70;72.18;99320.43;111115;1253;21953;-68
2024/03/23 06:37:40;;;;;;;38.30;34.50;;;;;;;10.75;71.74;99314.89;111108;1253;21969;-68
2024/03/23 06:40:10;;;;;;;35.20;31.60;;;;;;;10.80;71.49;99321.70;111119;1253;22061;-69
2024/03/23 06:42:39;;;;;;;29.60;26.40;;;;;;;10.83;71.27;99317.87;111138;1253;21953;-70
2024/03/23 06:45:09;;;;;;;26.50;23.70;;;;;;;10.86;70.99;99319.35;111071;1253;21954;-68
2024/03/23 06:47:37;;;;;;;26.40;23.50;;;;;;;10.85;70.90;99318.73;110987;1253;21961;-69
2024/03/23 06:50:07;;;;;;;25.50;22.80;;;;;;;10.83;70.57;99312.41;110957;1244;21957;-69
2024/03/23 06:52:36;;;;;;;26.20;23.50;;;;;;;10.83;70.80;99308.05;111068;1253;21962;-71
2024/03/23 06:55:06;;;;;;;24.60;21.90;;;;;;;10.87;70.90;99304.64;111036;1253;21960;-70
2024/03/23 06:57:34;;;;;;;26.00;23.20;;;;;;;10.93;70.44;99302.87;111098;1253;22053;-70
2024/03/23 07:00:05;;;;;;;26.40;20.60;;;;;;;11.05;70.19;99292.91;111180;1248;22002;-68
2024/03/23 07:02:34;;;;;;;24.90;22.30;;;;;;;11.24;70.16;99286.44;111043;1253;22138;-68
2024/03/23 07:05:04;;;;;;;26.50;22.10;;;;;;;11.56;69.51;99287.23;111117;1253;21985;-70
2024/03/23 07:07:33;;;;;;;25.60;22.80;;;;;;;12.00;68.93;99284.08;111083;1253;21965;-67
2024/03/23 07:10:02;;;;;;;27.00;20.70;;;;;;;12.58;67.57;99272.96;111020;1253;22001;-70
2024/03/23 07:12:31;;;;;;;25.30;21.30;;;;;;;13.04;65.84;99269.55;111014;1253;23687;-67
2024/03/23 07:15:00;;;;;;;22.20;20.00;;;;;;;13.45;64.21;99260.42;111000;1253;21989;-69
2024/03/23 07:17:29;;;;;;;23.60;20.40;;;;;;;13.67;63.39;99258.58;111095;1253;23450;-71
2024/03/23 07:19:57;;;;;;;20.90;18.70;;;;;;;13.85;63.10;99257.78;110985;1253;21976;-69
2024/03/23 07:22:26;;;;;;;20.40;18.20;;;;;;;14.13;62.50;99262.45;111060;1253;21956;-71
2024/03/23 07:24:55;;;;;;;20.40;18.30;;;;;;;14.53;61.29;99249.98;111150;1253;21957;-68
2024/03/23 07:27:25;;;;;;;19.40;17.20;;;;;;;14.87;59.47;99241.60;111006;1253;22103;-69
2024/03/23 07:29:55;;;;;;;18.10;16.00;;;;;;;15.16;58.48;99231.13;111184;1253;21963;-69
2024/03/23 07:32:24;;;;;;;18.30;16.40;;;;;;;15.50;57.69;99224.23;111063;1251;21959;-69
2024/03/23 07:34:53;;;;;;;18.90;16.80;;;;;;;15.82;56.16;99224.00;111062;1253;21955;-69
2024/03/23 07:37:22;;;;;;;23.00;16.90;;;;;;;16.18;56.17;99237.72;111118;1253;22049;-69
2024/03/23 07:39:53;;;;;;;22.10;16.40;;;;;;;16.65;54.88;99241.36;111107;1253;24389;-67
2024/03/23 07:42:21;;;;;;;17.00;15.30;;;;;;;17.06;53.59;99233.36;111098;1253;21972;-68
2024/03/23 07:44:50;;;;;;;19.60;17.20;;;;;;;17.36;52.61;99230.39;111152;1253;22022;-70
2024/03/23 07:47:19;;;;;;;17.70;15.90;;;;;;;17.62;51.71;99226.65;111144;1253;21957;-69
2024/03/23 07:49:48;;;;;;;18.70;16.40;;;;;;;17.77;50.65;99223.80;111103;1243;21966;-70
2024/03/23 07:52:17;;;;;;;19.20;17.20;;;;;;;17.82;50.39;99220.52;111019;1253;23599;-69
2024/03/23 07:54:46;;;;;;;22.40;19.80;;;;;;;17.95;49.65;99211.34;111013;1253;21966;-71
2024/03/23 07:57:15;;;;;;;20.60;17.20;;;;;;;18.10;49.46;99207.20;111410;1253;23677;-70
2024/03/23 07:59:44;;;;;;;21.50;19.50;;;;;;;18.29;48.56;99204.02;110964;1253;21974;-71
2024/03/23 08:02:13;;;;;;;20.30;17.10;;;;;;;18.53;47.92;99200.42;111032;1253;21951;-70
2024/03/23 08:04:42;;;;;;;17.60;16.00;;;;;;;18.87;47.01;99197.84;111043;1253;21954;-71
2024/03/23 08:07:10;;;;;;;18.00;16.30;;;;;;;19.08;46.17;99194.77;111134;1253;21987;-70
2024/03/23 08:09:39;;;;;;;17.40;15.60;;;;;;;19.27;45.93;99183.25;110966;1253;21949;-71
2024/03/23 08:12:09;;;;;;;20.40;18.20;;;;;;;19.53;45.39;99175.73;111041;1253;21979;-71
2024/03/23 08:14:38;;;;;;;16.50;14.90;;;;;;;19.81;44.57;99167.32;111102;1243;22426;-70
2024/03/23 08:17:07;;;;;;;17.80;16.20;;;;;;;20.07;43.97;99158.86;111033;1253;21958;-70
2024/03/23 08:19:35;;;;;;;15.70;14.30;;;;;;;20.26;42.73;99157.44;111040;1253;21945;-71
2024/03/23 08:22:04;;;;;;;21.40;19.10;;;;;;;20.38;43.07;99149.81;110916;1253;21942;-71
2024/03/23 08:24:34;;;;;;;18.50;15.40;;;;;;;20.62;42.19;99142.59;111014;1253;22220;-72
2024/03/23 08:27:04;;;;;;;16.10;14.30;;;;;;;20.78;40.66;99140.30;111002;1253;21955;-71
2024/03/23 08:29:33;;;;;;;16.40;14.80;;;;;;;20.79;41.29;99143.37;111338;1253;21963;-71
2024/03/23 08:32:02;;;;;;;15.90;14.10;;;;;;;20.84;41.30;99137.65;111349;1253;21955;-73
2024/03/23 08:34:31;;;;;;;16.80;14.60;;;;;;;21.07;40.97;99133.60;110986;1253;21968;-71
2024/03/23 08:37:00;;;;;;;16.30;14.80;;;;;;;21.18;40.05;99123.64;111082;1253;21953;-71
2024/03/23 08:39:29;;;;;;;16.60;14.90;;;;;;;21.30;40.09;99115.56;111105;1253;21965;-71
2024/03/23 08:41:58;;;;;;;19.80;17.80;;;;;;;21.65;39.74;99115.77;111081;1253;21953;-73
2024/03/23 08:44:27;;;;;;;17.60;15.80;;;;;;;21.81;38.93;99112.80;111353;1253;22052;-71
2024/03/23 08:46:56;;;;;;;15.70;14.10;;;;;;;21.94;38.69;99108.47;111005;1253;22948;-71
2024/03/23 08:49:25;;;;;;;15.50;13.50;;;;;;;22.03;37.92;99101.61;111086;1253;22079;-70
2024/03/23 08:51:57;;;;;;;15.30;13.80;;;;;;;22.15;37.69;99100.92;111048;1253;24170;-71
2024/03/23 08:54:27;;;;;;;16.60;14.90;;;;;;;22.21;37.50;99097.48;111034;1253;22035;-73
2024/03/23 08:56:56;;;;;;;16.70;15.20;;;;;;;22.24;37.42;99095.94;111270;1253;23062;-73
2024/03/23 08:59:25;;;;;;;16.70;15.20;;;;;;;22.28;37.60;99094.30;111283;1253;21957;-72
2024/03/23 09:01:53;;;;;;;14.70;13.30;;;;;;;22.24;36.75;99088.32;111339;1253;21958;-72
2024/03/23 09:04:22;;;;;;;13.40;12.30;;;;;;;22.15;37.00;99078.26;111312;1253;23060;-72
2024/03/23 09:06:51;;;;;;;15.20;12.10;;;;;;;22.16;37.07;99077.14;111340;1253;22068;-73
2024/03/23 09:09:20;;;;;;;14.30;12.80;;;;;;;22.12;36.43;99070.53;111345;1253;22373;-71
2024/03/23 09:11:49;;;;;;;17.30;15.40;;;;;;;22.06;36.74;99067.23;112610;1253;21973;-70
2024/03/23 09:14:17;;;;;;;14.70;13.20;;;;;;;22.33;36.80;99061.86;111967;1253;21953;-71
2024/03/23 09:16:50;;;;;;;16.20;13.90;;;;;;;22.48;36.25;99062.29;111039;1253;21943;-71
2024/03/23 09:19:18;;;;;;;16.40;14.80;;;;;;;22.54;36.08;99055.92;111262;1253;22734;-71
2024/03/23 09:21:47;;;;;;;16.20;12.90;;;;;;;22.66;36.02;99049.22;111029;1253;21961;-72
2024/03/23 09:24:16;;;;;;;14.80;13.40;;;;;;;22.66;35.01;99037.76;111089;1251;22662;-70
2024/03/23 09:26:44;;;;;;;15.50;12.20;;;;;;;22.33;35.28;99029.23;111417;1253;22060;-70
2024/03/23 09:29:13;;;;;;;14.60;11.80;;;;;;;22.10;35.14;99029.29;111341;1253;22111;-71
2024/03/23 09:31:42;;;;;;;13.20;11.90;;;;;;;21.96;35.43;99032.23;111154;1253;21957;-71
2024/03/23 09:34:11;;;;;;;21.50;16.90;;;;;;;21.95;35.99;99024.34;111351;1253;21953;-71
2024/03/23 09:36:40;;;;;;;21.10;15.40;;;;;;;22.21;36.22;99017.11;111320;1253;22056;-71
2024/03/23 09:39:09;;;;;;;17.10;15.30;;;;;;;22.56;35.39;99012.36;110985;1253;21953;-70
2024/03/23 09:41:38;;;;;;;16.10;14.60;;;;;;;22.57;34.64;99004.40;111105;1253;21953;-72
2024/03/23 09:44:07;;;;;;;13.50;12.10;;;;;;;22.29;34.82;99000.60;111080;1253;21941;-71
2024/03/23 09:46:36;;;;;;;15.00;13.50;;;;;;;22.20;35.36;99002.35;111282;1253;22011;-72
2024/03/23 09:49:08;;;;;;;13.50;12.30;;;;;;;22.23;35.13;98996.42;111320;1253;22086;-71
2024/03/23 09:51:37;;;;;;;14.20;12.10;;;;;;;22.29;35.43;98987.50;111027;1253;21968;-71
2024/03/23 09:54:06;;;;;;;13.50;12.20;;;;;;;22.32;34.82;98977.66;111239;1253;22730;-72
2024/03/23 09:56:35;;;;;;;15.90;14.00;;;;;;;22.38;34.82;98967.54;110937;1253;23618;-73
2024/03/23 09:59:06;;;;;;;14.10;12.80;;;;;;;22.28;34.65;98960.98;111336;1253;21966;-71
2024/03/23 10:01:35;;;;;;;13.30;12.00;;;;;;;21.90;34.36;98961.61;111298;1253;22641;-70
2024/03/23 10:04:05;;;;;;;13.70;12.40;;;;;;;21.16;35.42;98958.63;110962;1253;23713;-72
2024/03/23 10:06:34;;;;;;;13.90;12.60;;;;;;;20.55;36.25;98948.79;111088;1253;21962;-71
2024/03/23 10:09:17;;;;;;;14.30;12.80;;;;;;;20.12;37.13;98940.16;111100;1253;22825;-72
2024/03/23 10:11:48;;;;;;;13.90;12.70;;;;;;;20.09;37.56;98934.95;110951;1253;24164;-72
2024/03/23 10:14:30;;;;;;;16.20;14.50;;;;;;;20.11;37.60;98937.67;110936;1241;23033;-71
2024/03/23 10:17:20;;;;;;;;;;;;;;;19.94;38.02;98944.23;110954;1253;25054;-73
2024/03/23 10:19:56;;;;;;;16.10;13.90;;;;;;;19.63;38.43;98946.27;111358;1253;22314;-72
2024/03/23 10:22:24;;;;;;;15.20;13.00;;;;;;;19.48;38.46;98943.92;111373;1253;22024;-71
2024/03/23 10:25:08;;;;;;;18.00;14.50;;;;;;;19.20;38.88;98934.14;111040;1253;22723;-70
2024/03/23 10:27:37;;;;;;;20.90;15.50;;;;;;;18.97;39.46;98927.98;111046;1253;21958;-73
2024/03/23 10:30:19;;;;;;;18.50;16.50;;;;;;;18.80;39.75;98923.26;111346;1253;22175;-72
2024/03/23 10:32:50;;;;;;;18.70;14.90;;;;;;;18.60;40.06;98915.31;111021;1253;21956;-70
2024/03/23 10:35:23;;;;;;;16.70;15.10;;;;;;;18.41;40.53;98909.05;111029;1253;21935;-71
2024/03/23 10:37:53;;;;;;;17.50;15.40;;;;;;;18.33;40.90;98903.33;111385;1253;22013;-70
2024/03/23 10:40:23;;;;;;;16.40;14.60;;;;;;;18.33;41.18;98899.71;111389;1253;21978;-70
2024/03/23 10:42:57;;;;;;;17.20;15.60;;;;;;;18.30;41.29;98897.23;110978;1253;23574;-71
2024/03/23 10:45:26;;;;;;;22.10;18.30;;;;;;;18.17;41.46;98891.59;111073;1253;21964;-70
2024/03/23 10:47:55;;;;;;;18.20;16.40;;;;;;;18.13;41.75;98888.77;110999;1253;21966;-70
2024/03/23 10:50:25;;;;;;;19.80;17.70;;;;;;;18.13;42.00;98883.51;111065;1253;23019;-71
2024/03/23 10:52:55;;;;;;;23.20;21.10;;;;;;;18.13;42.31;98884.11;111032;1253;21964;-73
2024/03/23 10:55:24;;;;;;;16.00;14.30;;;;;;;18.13;42.45;98882.55;111146;1253;22969;-71
2024/03/23 10:57:58;;;;;;;18.70;16.10;;;;;;;18.09;42.47;98885.02;111160;1253;21956;-72
2024/03/23 11:00:27;;;;;;;24.90;21.60;;;;;;;17.97;42.75;98878.79;111339;1253;22034;-71
2024/03/23 11:02:56;;;;;;;25.00;21.60;;;;;;;17.81;43.16;98877.96;111228;1253;22009;-71
2024/03/23 11:05:24;;;;;;;19.10;17.10;;;;;;;17.65;43.94;98872.58;111276;1248;24011;-72
2024/03/23 11:07:54;;;;;;;25.60;21.50;;;;;;;17.52;44.12;98864.55;111042;1253;23687;-72
2024/03/23 11:10:30;;;;;;;20.30;18.30;;;;;;;17.31;44.89;98857.80;111027;1253;21965;-71
2024/03/23 11:13:23;;;;;;;19.20;17.30;;;;;;;17.19;45.18;98851.95;111265;1253;21963;-72
2024/03/23 11:15:51;;;;;;;20.50;16.30;;;;;;;17.14;45.71;98853.25;111122;1253;160682;-68
2024/03/23 11:18:21;;;;;;;17.60;15.80;;;;;;;17.09;46.14;98854.53;111079;1253;22030;-75
2024/03/23 11:20:50;;;;;;;18.60;16.40;;;;;;;17.05;46.23;98855.15;111323;1253;21932;-71